sensor_id;sensor_type;location;lat;lon;timestamp;P1;durP1;ratioP1;P2;durP2;ratioP2
73729;SDS011;62036;48.128;16.458;2023-06-14T00:00:19;4.10;;;2.58;;
73729;SDS011;62036;48.128;16.458;2023-06-14T00:02:45;3.58;;;2.25;;
73729;SDS011;62036;48.128;16.458;2023-06-14T00:05:11;3.35;;;2.45;;
73729;SDS011;62036;48.128;16.458;2023-06-14T00:07:39;4.00;;;2.72;;
73729;SDS011;62036;48.128;16.458;2023-06-14T00:10:08;4.55;;;2.65;;
73729;SDS011;62036;48.128;16.458;2023-06-14T00:12:34;4.00;;;2.70;;
73729;SDS011;62036;48.128;16.458;2023-06-14T00:15:01;4.95;;;2.58;;
73729;SDS011;62036;48.128;16.458;2023-06-14T00:17:27;3.55;;;2.50;;
73729;SDS011;62036;48.128;16.458;2023-06-14T00:19:57;5.57;;;2.80;;
73729;SDS011;62036;48.128;16.458;2023-06-14T00:22:23;5.35;;;2.50;;
73729;SDS011;62036;48.128;16.458;2023-06-14T00:24:56;4.10;;;2.90;;
73729;SDS011;62036;48.128;16.458;2023-06-14T00:27:22;5.10;;;2.60;;
73729;SDS011;62036;48.128;16.458;2023-06-14T00:29:48;2.80;;;2.45;;
73729;SDS011;62036;48.128;16.458;2023-06-14T00:32:14;3.13;;;2.33;;
73729;SDS011;62036;48.128;16.458;2023-06-14T00:34:40;3.80;;;2.40;;
73729;SDS011;62036;48.128;16.458;2023-06-14T00:37:06;5.20;;;2.95;;
73729;SDS011;62036;48.128;16.458;2023-06-14T00:39:32;6.95;;;2.70;;
73729;SDS011;62036;48.128;16.458;2023-06-14T00:41:58;5.50;;;2.75;;
73729;SDS011;62036;48.128;16.458;2023-06-14T00:44:24;4.47;;;2.42;;
73729;SDS011;62036;48.128;16.458;2023-06-14T00:46:50;5.22;;;2.90;;
73729;SDS011;62036;48.128;16.458;2023-06-14T00:49:16;3.25;;;2.25;;
73729;SDS011;62036;48.128;16.458;2023-06-14T00:51:43;3.58;;;2.72;;
73729;SDS011;62036;48.128;16.458;2023-06-14T00:54:09;4.30;;;2.38;;
73729;SDS011;62036;48.128;16.458;2023-06-14T00:56:36;3.78;;;2.67;;
73729;SDS011;62036;48.128;16.458;2023-06-14T00:59:02;4.10;;;2.60;;
73729;SDS011;62036;48.128;16.458;2023-06-14T01:01:29;3.17;;;2.30;;
73729;SDS011;62036;48.128;16.458;2023-06-14T01:03:58;3.58;;;2.63;;
73729;SDS011;62036;48.128;16.458;2023-06-14T01:09:03;4.82;;;2.88;;
73729;SDS011;62036;48.128;16.458;2023-06-14T01:11:33;3.10;;;2.60;;
73729;SDS011;62036;48.128;16.458;2023-06-14T01:14:01;5.45;;;2.92;;
73729;SDS011;62036;48.128;16.458;2023-06-14T01:16:28;3.75;;;2.70;;
73729;SDS011;62036;48.128;16.458;2023-06-14T01:18:54;3.78;;;2.47;;
73729;SDS011;62036;48.128;16.458;2023-06-14T01:21:23;3.10;;;2.22;;
73729;SDS011;62036;48.128;16.458;2023-06-14T01:23:49;4.93;;;2.60;;
73729;SDS011;62036;48.128;16.458;2023-06-14T01:26:18;3.05;;;2.17;;
73729;SDS011;62036;48.128;16.458;2023-06-14T01:28:45;3.05;;;2.30;;
73729;SDS011;62036;48.128;16.458;2023-06-14T01:31:17;3.65;;;2.30;;
73729;SDS011;62036;48.128;16.458;2023-06-14T01:33:43;4.18;;;2.35;;
73729;SDS011;62036;48.128;16.458;2023-06-14T01:36:09;4.00;;;2.50;;
73729;SDS011;62036;48.128;16.458;2023-06-14T01:38:36;3.97;;;2.38;;
73729;SDS011;62036;48.128;16.458;2023-06-14T01:41:02;3.88;;;2.10;;
73729;SDS011;62036;48.128;16.458;2023-06-14T01:43:29;3.75;;;2.42;;
73729;SDS011;62036;48.128;16.458;2023-06-14T01:45:56;4.47;;;2.90;;
73729;SDS011;62036;48.128;16.458;2023-06-14T01:48:23;4.03;;;2.80;;
73729;SDS011;62036;48.128;16.458;2023-06-14T01:50:49;4.40;;;2.50;;
73729;SDS011;62036;48.128;16.458;2023-06-14T01:53:15;4.20;;;2.72;;
73729;SDS011;62036;48.128;16.458;2023-06-14T01:55:41;4.35;;;2.72;;
73729;SDS011;62036;48.128;16.458;2023-06-14T01:58:10;4.35;;;2.47;;
73729;SDS011;62036;48.128;16.458;2023-06-14T02:00:37;2.90;;;2.10;;
73729;SDS011;62036;48.128;16.458;2023-06-14T02:03:03;3.88;;;2.80;;
73729;SDS011;62036;48.128;16.458;2023-06-14T02:05:29;3.10;;;2.67;;
73729;SDS011;62036;48.128;16.458;2023-06-14T02:07:55;2.55;;;2.33;;
73729;SDS011;62036;48.128;16.458;2023-06-14T02:10:22;3.95;;;2.53;;
73729;SDS011;62036;48.128;16.458;2023-06-14T02:12:48;3.67;;;2.38;;
73729;SDS011;62036;48.128;16.458;2023-06-14T02:15:15;8.10;;;2.50;;
73729;SDS011;62036;48.128;16.458;2023-06-14T02:17:45;3.35;;;2.30;;
73729;SDS011;62036;48.128;16.458;2023-06-14T02:20:12;4.03;;;2.35;;
73729;SDS011;62036;48.128;16.458;2023-06-14T02:22:38;3.92;;;2.72;;
73729;SDS011;62036;48.128;16.458;2023-06-14T02:25:04;3.10;;;2.05;;
73729;SDS011;62036;48.128;16.458;2023-06-14T02:27:31;3.60;;;2.20;;
73729;SDS011;62036;48.128;16.458;2023-06-14T02:29:57;2.38;;;2.17;;
73729;SDS011;62036;48.128;16.458;2023-06-14T02:32:23;7.03;;;2.63;;
73729;SDS011;62036;48.128;16.458;2023-06-14T02:34:49;3.70;;;2.65;;
73729;SDS011;62036;48.128;16.458;2023-06-14T02:37:16;4.55;;;3.00;;
73729;SDS011;62036;48.128;16.458;2023-06-14T02:39:42;3.80;;;2.22;;
73729;SDS011;62036;48.128;16.458;2023-06-14T02:42:08;3.55;;;2.60;;
73729;SDS011;62036;48.128;16.458;2023-06-14T02:44:34;2.90;;;2.10;;
73729;SDS011;62036;48.128;16.458;2023-06-14T02:47:00;5.07;;;2.67;;
73729;SDS011;62036;48.128;16.458;2023-06-14T02:49:27;4.18;;;2.90;;
73729;SDS011;62036;48.128;16.458;2023-06-14T02:51:52;4.65;;;2.75;;
73729;SDS011;62036;48.128;16.458;2023-06-14T02:54:19;3.63;;;2.80;;
73729;SDS011;62036;48.128;16.458;2023-06-14T02:56:45;4.95;;;3.08;;
73729;SDS011;62036;48.128;16.458;2023-06-14T02:59:11;2.70;;;2.35;;
73729;SDS011;62036;48.128;16.458;2023-06-14T03:01:38;5.07;;;3.03;;
73729;SDS011;62036;48.128;16.458;2023-06-14T03:04:06;3.70;;;2.60;;
73729;SDS011;62036;48.128;16.458;2023-06-14T03:06:32;3.78;;;2.67;;
73729;SDS011;62036;48.128;16.458;2023-06-14T03:08:59;3.00;;;2.53;;
73729;SDS011;62036;48.128;16.458;2023-06-14T03:11:26;4.78;;;2.72;;
73729;SDS011;62036;48.128;16.458;2023-06-14T03:13:52;5.40;;;3.00;;
73729;SDS011;62036;48.128;16.458;2023-06-14T03:16:18;5.15;;;2.53;;
73729;SDS011;62036;48.128;16.458;2023-06-14T03:18:45;7.10;;;2.60;;
73729;SDS011;62036;48.128;16.458;2023-06-14T03:21:11;6.13;;;2.60;;
73729;SDS011;62036;48.128;16.458;2023-06-14T03:23:37;4.00;;;2.63;;
73729;SDS011;62036;48.128;16.458;2023-06-14T03:26:03;4.53;;;2.95;;
73729;SDS011;62036;48.128;16.458;2023-06-14T03:28:29;4.03;;;2.78;;
73729;SDS011;62036;48.128;16.458;2023-06-14T03:30:55;5.07;;;2.50;;
73729;SDS011;62036;48.128;16.458;2023-06-14T03:33:21;4.50;;;2.15;;
73729;SDS011;62036;48.128;16.458;2023-06-14T03:35:47;3.35;;;2.47;;
73729;SDS011;62036;48.128;16.458;2023-06-14T03:38:14;3.63;;;2.70;;
73729;SDS011;62036;48.128;16.458;2023-06-14T03:40:40;6.25;;;2.95;;
73729;SDS011;62036;48.128;16.458;2023-06-14T03:43:06;4.45;;;2.55;;
73729;SDS011;62036;48.128;16.458;2023-06-14T03:45:33;4.47;;;2.55;;
73729;SDS011;62036;48.128;16.458;2023-06-14T03:47:59;3.58;;;2.60;;
73729;SDS011;62036;48.128;16.458;2023-06-14T03:50:25;3.42;;;2.40;;
73729;SDS011;62036;48.128;16.458;2023-06-14T03:52:52;4.28;;;3.08;;
73729;SDS011;62036;48.128;16.458;2023-06-14T03:55:18;5.28;;;2.60;;
73729;SDS011;62036;48.128;16.458;2023-06-14T03:57:44;4.50;;;2.65;;
73729;SDS011;62036;48.128;16.458;2023-06-14T04:00:10;4.35;;;2.85;;
73729;SDS011;62036;48.128;16.458;2023-06-14T04:02:37;4.05;;;2.90;;
73729;SDS011;62036;48.128;16.458;2023-06-14T04:05:03;3.17;;;2.70;;
73729;SDS011;62036;48.128;16.458;2023-06-14T04:07:33;5.15;;;2.70;;
73729;SDS011;62036;48.128;16.458;2023-06-14T04:10:05;3.15;;;2.38;;
73729;SDS011;62036;48.128;16.458;2023-06-14T04:12:31;5.43;;;2.60;;
73729;SDS011;62036;48.128;16.458;2023-06-14T04:14:57;5.00;;;2.53;;
73729;SDS011;62036;48.128;16.458;2023-06-14T04:17:23;4.47;;;2.67;;
73729;SDS011;62036;48.128;16.458;2023-06-14T04:19:49;5.35;;;3.08;;
73729;SDS011;62036;48.128;16.458;2023-06-14T04:22:15;4.15;;;2.60;;
73729;SDS011;62036;48.128;16.458;2023-06-14T04:24:41;4.68;;;2.78;;
73729;SDS011;62036;48.128;16.458;2023-06-14T04:27:07;4.68;;;2.63;;
73729;SDS011;62036;48.128;16.458;2023-06-14T04:29:33;4.28;;;2.72;;
73729;SDS011;62036;48.128;16.458;2023-06-14T04:31:59;4.78;;;2.95;;
73729;SDS011;62036;48.128;16.458;2023-06-14T04:34:26;5.05;;;3.22;;
73729;SDS011;62036;48.128;16.458;2023-06-14T04:36:57;6.05;;;3.20;;
73729;SDS011;62036;48.128;16.458;2023-06-14T04:39:24;4.57;;;3.47;;
73729;SDS011;62036;48.128;16.458;2023-06-14T04:41:52;4.78;;;3.13;;
73729;SDS011;62036;48.128;16.458;2023-06-14T04:44:22;4.55;;;2.97;;
73729;SDS011;62036;48.128;16.458;2023-06-14T04:46:49;5.40;;;3.53;;
73729;SDS011;62036;48.128;16.458;2023-06-14T04:49:16;4.53;;;3.13;;
73729;SDS011;62036;48.128;16.458;2023-06-14T04:51:43;5.30;;;3.78;;
73729;SDS011;62036;48.128;16.458;2023-06-14T04:54:10;5.47;;;3.53;;
73729;SDS011;62036;48.128;16.458;2023-06-14T04:56:38;5.07;;;3.50;;
73729;SDS011;62036;48.128;16.458;2023-06-14T04:59:04;6.20;;;4.15;;
73729;SDS011;62036;48.128;16.458;2023-06-14T05:01:30;6.90;;;3.38;;
73729;SDS011;62036;48.128;16.458;2023-06-14T05:03:57;6.00;;;4.50;;
73729;SDS011;62036;48.128;16.458;2023-06-14T05:06:23;4.95;;;3.35;;
73729;SDS011;62036;48.128;16.458;2023-06-14T05:08:49;4.18;;;3.50;;
73729;SDS011;62036;48.128;16.458;2023-06-14T05:11:16;9.30;;;3.75;;
73729;SDS011;62036;48.128;16.458;2023-06-14T05:13:42;6.03;;;4.13;;
73729;SDS011;62036;48.128;16.458;2023-06-14T05:16:10;6.70;;;3.78;;
73729;SDS011;62036;48.128;16.458;2023-06-14T05:18:36;3.40;;;3.08;;
73729;SDS011;62036;48.128;16.458;2023-06-14T05:21:03;5.70;;;3.10;;
73729;SDS011;62036;48.128;16.458;2023-06-14T05:23:30;4.50;;;3.38;;
73729;SDS011;62036;48.128;16.458;2023-06-14T05:25:56;4.32;;;2.88;;
73729;SDS011;62036;48.128;16.458;2023-06-14T05:28:23;6.55;;;2.75;;
73729;SDS011;62036;48.128;16.458;2023-06-14T05:30:49;4.25;;;2.95;;
73729;SDS011;62036;48.128;16.458;2023-06-14T05:33:15;6.18;;;3.33;;
73729;SDS011;62036;48.128;16.458;2023-06-14T05:35:41;3.95;;;3.00;;
73729;SDS011;62036;48.128;16.458;2023-06-14T05:38:07;3.78;;;2.55;;
73729;SDS011;62036;48.128;16.458;2023-06-14T05:40:33;4.50;;;3.28;;
73729;SDS011;62036;48.128;16.458;2023-06-14T05:43:00;4.65;;;3.60;;
73729;SDS011;62036;48.128;16.458;2023-06-14T05:45:26;5.68;;;3.55;;
73729;SDS011;62036;48.128;16.458;2023-06-14T05:47:52;5.22;;;3.17;;
73729;SDS011;62036;48.128;16.458;2023-06-14T05:50:19;6.80;;;3.85;;
73729;SDS011;62036;48.128;16.458;2023-06-14T05:52:45;4.03;;;3.22;;
73729;SDS011;62036;48.128;16.458;2023-06-14T05:55:11;7.43;;;4.20;;
73729;SDS011;62036;48.128;16.458;2023-06-14T05:57:38;4.75;;;2.83;;
73729;SDS011;62036;48.128;16.458;2023-06-14T06:00:05;2.40;;;2.08;;
73729;SDS011;62036;48.128;16.458;2023-06-14T06:02:36;3.95;;;2.53;;
73729;SDS011;62036;48.128;16.458;2023-06-14T06:05:02;2.60;;;2.22;;
73729;SDS011;62036;48.128;16.458;2023-06-14T06:07:28;3.45;;;2.45;;
73729;SDS011;62036;48.128;16.458;2023-06-14T06:09:54;3.60;;;2.45;;
73729;SDS011;62036;48.128;16.458;2023-06-14T06:12:20;3.75;;;2.75;;
73729;SDS011;62036;48.128;16.458;2023-06-14T06:14:46;3.85;;;2.45;;
73729;SDS011;62036;48.128;16.458;2023-06-14T06:17:12;4.18;;;2.25;;
73729;SDS011;62036;48.128;16.458;2023-06-14T06:19:40;3.28;;;2.55;;
73729;SDS011;62036;48.128;16.458;2023-06-14T06:22:06;3.38;;;2.10;;
73729;SDS011;62036;48.128;16.458;2023-06-14T06:24:33;4.55;;;2.45;;
73729;SDS011;62036;48.128;16.458;2023-06-14T06:26:59;4.18;;;2.10;;
73729;SDS011;62036;48.128;16.458;2023-06-14T06:29:25;4.97;;;2.42;;
73729;SDS011;62036;48.128;16.458;2023-06-14T06:31:51;3.13;;;2.20;;
73729;SDS011;62036;48.128;16.458;2023-06-14T06:34:17;2.80;;;2.10;;
73729;SDS011;62036;48.128;16.458;2023-06-14T06:36:43;3.55;;;2.30;;
73729;SDS011;62036;48.128;16.458;2023-06-14T06:39:09;5.00;;;2.72;;
73729;SDS011;62036;48.128;16.458;2023-06-14T06:41:37;3.75;;;2.58;;
73729;SDS011;62036;48.128;16.458;2023-06-14T06:44:04;5.10;;;2.72;;
73729;SDS011;62036;48.128;16.458;2023-06-14T06:46:31;2.75;;;2.50;;
73729;SDS011;62036;48.128;16.458;2023-06-14T06:48:57;4.93;;;2.50;;
73729;SDS011;62036;48.128;16.458;2023-06-14T06:51:23;4.97;;;3.10;;
73729;SDS011;62036;48.128;16.458;2023-06-14T06:53:53;3.33;;;2.90;;
73729;SDS011;62036;48.128;16.458;2023-06-14T06:56:20;4.65;;;2.60;;
73729;SDS011;62036;48.128;16.458;2023-06-14T06:58:48;3.83;;;2.58;;
73729;SDS011;62036;48.128;16.458;2023-06-14T07:01:14;4.28;;;2.55;;
73729;SDS011;62036;48.128;16.458;2023-06-14T07:03:41;4.15;;;2.88;;
73729;SDS011;62036;48.128;16.458;2023-06-14T07:06:07;3.50;;;2.42;;
73729;SDS011;62036;48.128;16.458;2023-06-14T07:08:33;3.15;;;2.47;;
73729;SDS011;62036;48.128;16.458;2023-06-14T07:10:59;3.80;;;2.67;;
73729;SDS011;62036;48.128;16.458;2023-06-14T07:13:25;4.78;;;2.47;;
73729;SDS011;62036;48.128;16.458;2023-06-14T07:15:54;4.85;;;3.08;;
73729;SDS011;62036;48.128;16.458;2023-06-14T07:18:20;2.95;;;2.50;;
73729;SDS011;62036;48.128;16.458;2023-06-14T07:20:47;2.75;;;2.50;;
73729;SDS011;62036;48.128;16.458;2023-06-14T07:23:13;3.17;;;2.70;;
73729;SDS011;62036;48.128;16.458;2023-06-14T07:25:40;5.28;;;2.88;;
73729;SDS011;62036;48.128;16.458;2023-06-14T07:28:06;4.07;;;2.75;;
73729;SDS011;62036;48.128;16.458;2023-06-14T07:30:32;4.25;;;2.90;;
73729;SDS011;62036;48.128;16.458;2023-06-14T07:32:58;3.83;;;2.97;;
73729;SDS011;62036;48.128;16.458;2023-06-14T07:35:25;4.47;;;2.90;;
73729;SDS011;62036;48.128;16.458;2023-06-14T07:37:51;2.75;;;2.30;;
73729;SDS011;62036;48.128;16.458;2023-06-14T07:40:17;4.22;;;2.97;;
73729;SDS011;62036;48.128;16.458;2023-06-14T07:42:43;3.38;;;2.60;;
73729;SDS011;62036;48.128;16.458;2023-06-14T07:45:11;4.10;;;2.92;;
73729;SDS011;62036;48.128;16.458;2023-06-14T07:47:37;3.15;;;2.55;;
73729;SDS011;62036;48.128;16.458;2023-06-14T07:50:04;4.47;;;2.45;;
73729;SDS011;62036;48.128;16.458;2023-06-14T07:52:30;3.17;;;2.13;;
73729;SDS011;62036;48.128;16.458;2023-06-14T07:54:56;4.30;;;2.53;;
73729;SDS011;62036;48.128;16.458;2023-06-14T07:57:23;4.05;;;2.55;;
73729;SDS011;62036;48.128;16.458;2023-06-14T07:59:49;3.45;;;2.85;;
73729;SDS011;62036;48.128;16.458;2023-06-14T08:02:15;3.92;;;2.60;;
73729;SDS011;62036;48.128;16.458;2023-06-14T08:04:41;3.78;;;2.50;;
73729;SDS011;62036;48.128;16.458;2023-06-14T08:07:10;4.38;;;2.17;;
73729;SDS011;62036;48.128;16.458;2023-06-14T08:09:37;3.85;;;2.53;;
73729;SDS011;62036;48.128;16.458;2023-06-14T08:12:04;3.20;;;1.75;;
73729;SDS011;62036;48.128;16.458;2023-06-14T08:14:32;2.42;;;1.92;;
73729;SDS011;62036;48.128;16.458;2023-06-14T08:16:58;3.63;;;2.40;;
73729;SDS011;62036;48.128;16.458;2023-06-14T08:19:24;3.00;;;2.13;;
73729;SDS011;62036;48.128;16.458;2023-06-14T08:21:50;3.30;;;2.47;;
73729;SDS011;62036;48.128;16.458;2023-06-14T08:24:20;5.03;;;2.85;;
73729;SDS011;62036;48.128;16.458;2023-06-14T08:26:49;2.35;;;1.95;;
73729;SDS011;62036;48.128;16.458;2023-06-14T08:29:15;3.90;;;2.10;;
73729;SDS011;62036;48.128;16.458;2023-06-14T08:31:41;6.05;;;2.40;;
73729;SDS011;62036;48.128;16.458;2023-06-14T08:34:07;4.55;;;2.10;;
73729;SDS011;62036;48.128;16.458;2023-06-14T08:36:34;3.33;;;2.38;;
73729;SDS011;62036;48.128;16.458;2023-06-14T08:39:00;4.82;;;2.33;;
73729;SDS011;62036;48.128;16.458;2023-06-14T08:41:27;3.22;;;2.28;;
73729;SDS011;62036;48.128;16.458;2023-06-14T08:43:54;3.25;;;2.60;;
73729;SDS011;62036;48.128;16.458;2023-06-14T08:46:20;2.42;;;1.98;;
73729;SDS011;62036;48.128;16.458;2023-06-14T08:48:50;3.58;;;2.40;;
73729;SDS011;62036;48.128;16.458;2023-06-14T08:51:20;3.17;;;2.28;;
73729;SDS011;62036;48.128;16.458;2023-06-14T08:53:52;4.28;;;2.30;;
73729;SDS011;62036;48.128;16.458;2023-06-14T08:56:23;3.67;;;2.78;;
73729;SDS011;62036;48.128;16.458;2023-06-14T08:58:50;7.35;;;2.95;;
73729;SDS011;62036;48.128;16.458;2023-06-14T09:01:17;2.72;;;2.15;;
73729;SDS011;62036;48.128;16.458;2023-06-14T09:03:44;2.80;;;2.13;;
73729;SDS011;62036;48.128;16.458;2023-06-14T09:06:11;4.55;;;2.53;;
73729;SDS011;62036;48.128;16.458;2023-06-14T09:08:43;2.70;;;2.25;;
73729;SDS011;62036;48.128;16.458;2023-06-14T09:11:13;2.70;;;2.33;;
73729;SDS011;62036;48.128;16.458;2023-06-14T09:13:39;2.78;;;2.40;;
73729;SDS011;62036;48.128;16.458;2023-06-14T09:16:06;3.20;;;2.20;;
73729;SDS011;62036;48.128;16.458;2023-06-14T09:18:42;3.03;;;2.30;;
73729;SDS011;62036;48.128;16.458;2023-06-14T09:21:12;5.18;;;3.00;;
73729;SDS011;62036;48.128;16.458;2023-06-14T09:23:39;4.07;;;2.53;;
73729;SDS011;62036;48.128;16.458;2023-06-14T09:26:06;4.78;;;2.63;;
73729;SDS011;62036;48.128;16.458;2023-06-14T09:28:33;6.40;;;3.10;;
73729;SDS011;62036;48.128;16.458;2023-06-14T09:31:00;3.83;;;2.38;;
73729;SDS011;62036;48.128;16.458;2023-06-14T09:33:26;4.93;;;2.58;;
73729;SDS011;62036;48.128;16.458;2023-06-14T09:35:55;7.38;;;2.47;;
73729;SDS011;62036;48.128;16.458;2023-06-14T09:38:21;4.72;;;2.55;;
73729;SDS011;62036;48.128;16.458;2023-06-14T09:40:47;3.42;;;2.20;;
73729;SDS011;62036;48.128;16.458;2023-06-14T09:43:13;3.22;;;2.00;;
73729;SDS011;62036;48.128;16.458;2023-06-14T09:45:39;4.47;;;1.90;;
73729;SDS011;62036;48.128;16.458;2023-06-14T09:48:06;4.25;;;2.10;;
73729;SDS011;62036;48.128;16.458;2023-06-14T09:50:33;2.95;;;1.95;;
73729;SDS011;62036;48.128;16.458;2023-06-14T09:53:05;2.40;;;1.95;;
73729;SDS011;62036;48.128;16.458;2023-06-14T09:55:34;4.85;;;1.92;;
73729;SDS011;62036;48.128;16.458;2023-06-14T09:58:00;2.22;;;1.98;;
73729;SDS011;62036;48.128;16.458;2023-06-14T10:00:28;5.22;;;2.08;;
73729;SDS011;62036;48.128;16.458;2023-06-14T10:02:58;3.47;;;2.13;;
73729;SDS011;62036;48.128;16.458;2023-06-14T10:05:26;5.38;;;2.30;;
73729;SDS011;62036;48.128;16.458;2023-06-14T10:07:55;3.95;;;1.85;;
73729;SDS011;62036;48.128;16.458;2023-06-14T10:10:25;2.08;;;1.88;;
73729;SDS011;62036;48.128;16.458;2023-06-14T10:12:51;4.45;;;2.10;;
73729;SDS011;62036;48.128;16.458;2023-06-14T10:15:32;2.88;;;1.80;;
73729;SDS011;62036;48.128;16.458;2023-06-14T10:18:04;4.05;;;1.70;;
73729;SDS011;62036;48.128;16.458;2023-06-14T10:20:35;8.38;;;2.28;;
73729;SDS011;62036;48.128;16.458;2023-06-14T10:23:22;2.58;;;1.83;;
73729;SDS011;62036;48.128;16.458;2023-06-14T10:25:50;7.10;;;1.90;;
73729;SDS011;62036;48.128;16.458;2023-06-14T10:28:17;5.95;;;2.10;;
73729;SDS011;62036;48.128;16.458;2023-06-14T10:33:31;2.80;;;1.65;;
73729;SDS011;62036;48.128;16.458;2023-06-14T10:36:10;3.50;;;1.88;;
73729;SDS011;62036;48.128;16.458;2023-06-14T10:38:37;2.67;;;1.70;;
73729;SDS011;62036;48.128;16.458;2023-06-14T10:41:04;2.05;;;1.58;;
73729;SDS011;62036;48.128;16.458;2023-06-14T10:43:30;2.53;;;1.33;;
73729;SDS011;62036;48.128;16.458;2023-06-14T10:46:16;3.83;;;1.55;;
73729;SDS011;62036;48.128;16.458;2023-06-14T10:48:48;1.45;;;1.27;;
73729;SDS011;62036;48.128;16.458;2023-06-14T10:51:15;5.28;;;1.67;;
73729;SDS011;62036;48.128;16.458;2023-06-14T10:53:45;3.70;;;1.80;;
73729;SDS011;62036;48.128;16.458;2023-06-14T10:56:22;2.85;;;1.98;;
73729;SDS011;62036;48.128;16.458;2023-06-14T10:58:49;5.00;;;1.80;;
73729;SDS011;62036;48.128;16.458;2023-06-14T11:01:18;2.58;;;1.67;;
73729;SDS011;62036;48.128;16.458;2023-06-14T11:03:51;2.67;;;1.50;;
73729;SDS011;62036;48.128;16.458;2023-06-14T11:06:19;3.28;;;1.58;;
73729;SDS011;62036;48.128;16.458;2023-06-14T11:08:56;2.92;;;1.60;;
73729;SDS011;62036;48.128;16.458;2023-06-14T11:11:31;2.70;;;1.50;;
73729;SDS011;62036;48.128;16.458;2023-06-14T11:14:00;3.15;;;1.20;;
73729;SDS011;62036;48.128;16.458;2023-06-14T11:16:27;2.83;;;1.50;;
73729;SDS011;62036;48.128;16.458;2023-06-14T11:18:54;2.85;;;1.65;;
73729;SDS011;62036;48.128;16.458;2023-06-14T11:21:20;2.78;;;1.38;;
73729;SDS011;62036;48.128;16.458;2023-06-14T11:23:52;2.13;;;1.50;;
73729;SDS011;62036;48.128;16.458;2023-06-14T11:26:30;2.33;;;1.60;;
73729;SDS011;62036;48.128;16.458;2023-06-14T11:28:59;2.97;;;1.48;;
73729;SDS011;62036;48.128;16.458;2023-06-14T11:31:26;1.42;;;1.20;;
73729;SDS011;62036;48.128;16.458;2023-06-14T11:33:53;2.65;;;1.52;;
73729;SDS011;62036;48.128;16.458;2023-06-14T11:36:20;2.03;;;1.45;;
73729;SDS011;62036;48.128;16.458;2023-06-14T11:38:46;1.90;;;1.48;;
73729;SDS011;62036;48.128;16.458;2023-06-14T11:41:12;1.88;;;1.42;;
73729;SDS011;62036;48.128;16.458;2023-06-14T11:43:39;1.85;;;1.60;;
73729;SDS011;62036;48.128;16.458;2023-06-14T11:46:11;2.00;;;1.40;;
73729;SDS011;62036;48.128;16.458;2023-06-14T11:48:40;1.70;;;1.52;;
73729;SDS011;62036;48.128;16.458;2023-06-14T11:51:06;2.85;;;1.48;;
73729;SDS011;62036;48.128;16.458;2023-06-14T11:53:32;6.10;;;3.75;;
73729;SDS011;62036;48.128;16.458;2023-06-14T11:55:58;1.88;;;1.30;;
73729;SDS011;62036;48.128;16.458;2023-06-14T11:58:25;2.72;;;1.55;;
73729;SDS011;62036;48.128;16.458;2023-06-14T12:00:52;3.38;;;1.98;;
73729;SDS011;62036;48.128;16.458;2023-06-14T12:03:23;3.22;;;1.95;;
73729;SDS011;62036;48.128;16.458;2023-06-14T12:06:05;1.98;;;1.77;;
73729;SDS011;62036;48.128;16.458;2023-06-14T12:08:36;2.88;;;1.50;;
73729;SDS011;62036;48.128;16.458;2023-06-14T12:11:14;1.75;;;1.45;;
73729;SDS011;62036;48.128;16.458;2023-06-14T12:13:41;2.42;;;1.40;;
73729;SDS011;62036;48.128;16.458;2023-06-14T12:16:08;2.22;;;1.67;;
73729;SDS011;62036;48.128;16.458;2023-06-14T12:18:38;1.85;;;1.65;;
73729;SDS011;62036;48.128;16.458;2023-06-14T12:21:05;2.40;;;1.50;;
73729;SDS011;62036;48.128;16.458;2023-06-14T12:23:47;1.88;;;1.52;;
73729;SDS011;62036;48.128;16.458;2023-06-14T12:26:14;1.70;;;1.45;;
73729;SDS011;62036;48.128;16.458;2023-06-14T12:28:41;2.50;;;1.50;;
73729;SDS011;62036;48.128;16.458;2023-06-14T12:31:14;3.83;;;1.80;;
73729;SDS011;62036;48.128;16.458;2023-06-14T12:33:41;1.83;;;1.60;;
73729;SDS011;62036;48.128;16.458;2023-06-14T12:36:07;1.92;;;1.48;;
73729;SDS011;62036;48.128;16.458;2023-06-14T12:38:34;2.33;;;1.63;;
73729;SDS011;62036;48.128;16.458;2023-06-14T12:41:00;2.42;;;1.35;;
73729;SDS011;62036;48.128;16.458;2023-06-14T12:43:26;2.75;;;1.67;;
73729;SDS011;62036;48.128;16.458;2023-06-14T12:45:52;2.10;;;1.42;;
73729;SDS011;62036;48.128;16.458;2023-06-14T12:48:19;2.00;;;1.52;;
73729;SDS011;62036;48.128;16.458;2023-06-14T12:50:45;3.47;;;1.90;;
73729;SDS011;62036;48.128;16.458;2023-06-14T12:53:11;2.53;;;1.70;;
73729;SDS011;62036;48.128;16.458;2023-06-14T12:55:37;2.70;;;1.70;;
73729;SDS011;62036;48.128;16.458;2023-06-14T12:58:03;2.70;;;1.70;;
73729;SDS011;62036;48.128;16.458;2023-06-14T13:00:29;1.92;;;1.40;;
73729;SDS011;62036;48.128;16.458;2023-06-14T13:02:56;2.03;;;1.55;;
73729;SDS011;62036;48.128;16.458;2023-06-14T13:05:22;2.97;;;1.50;;
73729;SDS011;62036;48.128;16.458;2023-06-14T13:07:48;1.45;;;1.33;;
73729;SDS011;62036;48.128;16.458;2023-06-14T13:10:15;2.33;;;1.42;;
73729;SDS011;62036;48.128;16.458;2023-06-14T13:12:41;2.17;;;1.50;;
73729;SDS011;62036;48.128;16.458;2023-06-14T13:15:07;2.17;;;1.45;;
73729;SDS011;62036;48.128;16.458;2023-06-14T13:17:34;2.70;;;1.75;;
73729;SDS011;62036;48.128;16.458;2023-06-14T13:20:04;2.70;;;1.42;;
73729;SDS011;62036;48.128;16.458;2023-06-14T13:22:30;2.75;;;1.60;;
73729;SDS011;62036;48.128;16.458;2023-06-14T13:24:56;2.95;;;1.75;;
73729;SDS011;62036;48.128;16.458;2023-06-14T13:27:22;3.88;;;2.42;;
73729;SDS011;62036;48.128;16.458;2023-06-14T13:29:49;2.92;;;1.52;;
73729;SDS011;62036;48.128;16.458;2023-06-14T13:32:15;1.88;;;1.65;;
73729;SDS011;62036;48.128;16.458;2023-06-14T13:34:41;2.33;;;1.55;;
73729;SDS011;62036;48.128;16.458;2023-06-14T13:37:07;2.65;;;1.33;;
73729;SDS011;62036;48.128;16.458;2023-06-14T13:39:33;2.38;;;1.60;;
73729;SDS011;62036;48.128;16.458;2023-06-14T13:42:02;2.25;;;1.60;;
73729;SDS011;62036;48.128;16.458;2023-06-14T13:44:28;4.72;;;1.70;;
73729;SDS011;62036;48.128;16.458;2023-06-14T13:46:54;2.10;;;1.70;;
73729;SDS011;62036;48.128;16.458;2023-06-14T13:49:20;2.40;;;1.65;;
73729;SDS011;62036;48.128;16.458;2023-06-14T13:51:46;2.65;;;1.50;;
73729;SDS011;62036;48.128;16.458;2023-06-14T13:54:13;2.50;;;1.40;;
73729;SDS011;62036;48.128;16.458;2023-06-14T13:56:40;2.53;;;1.40;;
73729;SDS011;62036;48.128;16.458;2023-06-14T13:59:06;1.90;;;1.45;;
73729;SDS011;62036;48.128;16.458;2023-06-14T14:01:32;4.03;;;1.63;;
73729;SDS011;62036;48.128;16.458;2023-06-14T14:03:58;1.85;;;1.58;;
73729;SDS011;62036;48.128;16.458;2023-06-14T14:06:25;1.73;;;1.42;;
73729;SDS011;62036;48.128;16.458;2023-06-14T14:08:51;2.08;;;1.30;;
73729;SDS011;62036;48.128;16.458;2023-06-14T14:11:18;3.13;;;1.52;;
73729;SDS011;62036;48.128;16.458;2023-06-14T14:13:45;3.30;;;1.80;;
73729;SDS011;62036;48.128;16.458;2023-06-14T14:16:12;1.98;;;1.40;;
73729;SDS011;62036;48.128;16.458;2023-06-14T14:18:38;1.98;;;1.30;;
73729;SDS011;62036;48.128;16.458;2023-06-14T14:21:04;1.92;;;1.50;;
73729;SDS011;62036;48.128;16.458;2023-06-14T14:23:30;2.17;;;1.23;;
73729;SDS011;62036;48.128;16.458;2023-06-14T14:25:57;4.13;;;1.77;;
73729;SDS011;62036;48.128;16.458;2023-06-14T14:28:23;2.55;;;1.63;;
73729;SDS011;62036;48.128;16.458;2023-06-14T14:30:49;3.40;;;1.65;;
73729;SDS011;62036;48.128;16.458;2023-06-14T14:33:15;1.92;;;1.40;;
73729;SDS011;62036;48.128;16.458;2023-06-14T14:35:43;2.13;;;1.70;;
73729;SDS011;62036;48.128;16.458;2023-06-14T14:38:11;2.30;;;1.33;;